Time;durP1;ratioP1;P1;durP2;ratioP2;P2;SDS_P1;SDS_P2;PMS_P1;PMS_P2;Temp;Humidity;BMP_temperature;BMP_pressure;BME280_temperature;BME280_humidity;BME280_pressure;Samples;Min_cycle;Max_cycle;Signal;HPM_P1;HPM_P2
2022/08/27 00:02:07;;;;;;;10.98;7.75;;;;;;;21.21;64.73;98477.39;2115763;83;21048;-82
2022/08/27 00:05:08;;;;;;;11.22;8.68;;;;;;;21.24;64.60;98471.13;2115482;84;21393;-82
2022/08/27 00:08:08;;;;;;;12.85;7.45;;;;;;;21.25;64.61;98472.41;2115767;83;20981;-82
2022/08/27 00:11:09;;;;;;;11.90;8.05;;;;;;;21.22;64.41;98468.97;2115924;84;20961;-82
2022/08/27 00:14:09;;;;;;;11.43;7.45;;;;;;;21.21;65.05;98464.58;2115556;83;21056;-82
2022/08/27 00:17:09;;;;;;;8.90;8.00;;;;;;;21.23;64.98;98462.77;2114979;83;21032;-82
2022/08/27 00:20:10;;;;;;;13.93;7.87;;;;;;;21.25;64.72;98471.53;2114898;84;20926;-82
2022/08/27 00:23:10;;;;;;;10.35;7.53;;;;;;;21.20;64.36;98462.38;2114852;84;20999;-82
2022/08/27 00:26:10;;;;;;;12.82;8.00;;;;;;;21.13;64.37;98467.97;2114740;84;21321;-82
2022/08/27 00:29:11;;;;;;;9.65;8.20;;;;;;;21.06;64.29;98471.77;2114603;84;20929;-81
2022/08/27 00:32:11;;;;;;;14.33;8.38;;;;;;;20.91;64.14;98468.75;2114660;84;21005;-82
2022/08/27 00:35:13;;;;;;;8.90;8.10;;;;;;;20.84;64.28;98471.22;2114929;84;21049;-82
2022/08/27 00:38:12;;;;;;;12.10;8.10;;;;;;;20.76;64.21;98467.94;2115497;83;20946;-81
2022/08/27 00:41:13;;;;;;;13.22;8.38;;;;;;;20.66;64.43;98468.72;2115498;83;20946;-81
2022/08/27 00:44:13;;;;;;;9.08;8.00;;;;;;;20.64;64.55;98469.23;2115064;83;21024;-82
2022/08/27 00:47:13;;;;;;;12.53;8.28;;;;;;;20.71;64.59;98472.53;2154115;83;21404;-81
2022/08/27 00:50:16;;;;;;;11.95;9.00;;;;;;;20.76;64.65;98465.74;2157626;83;20991;-82
2022/08/27 00:53:17;;;;;;;11.23;8.43;;;;;;;20.80;64.20;98468.23;2157719;83;20999;-82
2022/08/27 00:56:17;;;;;;;12.03;9.03;;;;;;;20.62;64.31;98463.58;2157672;83;20963;-82
2022/08/27 00:59:18;;;;;;;10.60;8.13;;;;;;;20.59;64.67;98468.98;2157620;83;21335;-81
2022/08/27 01:02:18;;;;;;;12.25;9.15;;;;;;;20.53;64.53;98471.38;2157527;83;21003;-81
2022/08/27 01:05:19;;;;;;;13.20;8.80;;;;;;;20.55;64.68;98464.24;2157794;83;20951;-82
2022/08/27 01:08:19;;;;;;;15.85;8.68;;;;;;;20.59;64.55;98456.59;2157570;83;21384;-82
2022/08/27 01:11:19;;;;;;;12.45;7.95;;;;;;;20.63;64.32;98454.70;2157596;83;20995;-82
2022/08/27 01:14:20;;;;;;;12.60;8.33;;;;;;;20.56;64.15;98449.20;2157699;83;20948;-81
2022/08/27 01:17:20;;;;;;;10.82;8.53;;;;;;;20.56;64.58;98445.22;2157313;83;21043;-81
2022/08/27 01:20:20;;;;;;;9.48;8.13;;;;;;;20.63;64.39;98451.59;2157430;83;21360;-81
2022/08/27 01:23:21;;;;;;;11.05;8.00;;;;;;;20.59;64.18;98448.63;2157480;83;21019;-82
2022/08/27 01:26:21;;;;;;;9.38;8.08;;;;;;;20.50;64.30;98449.41;2157755;83;20976;-81
2022/08/27 01:29:22;;;;;;;8.83;7.58;;;;;;;20.48;64.38;98451.25;2157528;83;21093;-82
2022/08/27 01:32:22;;;;;;;19.17;8.43;;;;;;;20.40;64.58;98444.88;2157468;83;20932;-83
2022/08/27 01:35:22;;;;;;;11.93;8.65;;;;;;;20.40;64.44;98451.97;2157602;83;20979;-82
2022/08/27 01:38:23;;;;;;;11.80;9.23;;;;;;;20.38;64.51;98448.47;2157782;83;21033;-81
2022/08/27 01:41:23;;;;;;;11.15;8.63;;;;;;;20.41;64.41;98456.35;2157642;83;21360;-81
2022/08/27 01:44:24;;;;;;;8.50;7.40;;;;;;;20.31;64.23;98452.66;2157883;83;21019;-82
2022/08/27 01:47:24;;;;;;;10.98;7.70;;;;;;;20.18;64.43;98454.44;2130892;83;21060;-82
2022/08/27 01:50:24;;;;;;;12.73;8.68;;;;;;;20.10;64.63;98458.66;2128332;84;21024;-82
2022/08/27 01:53:25;;;;;;;11.33;9.00;;;;;;;20.04;64.64;98466.35;2128581;84;21409;-82
2022/08/27 01:56:25;;;;;;;9.15;8.23;;;;;;;19.79;63.34;98464.50;2128493;84;20985;-82
2022/08/27 01:59:26;;;;;;;13.93;8.35;;;;;;;18.96;63.66;98472.17;2128549;84;21033;-82
2022/08/27 02:02:26;;;;;;;23.50;9.78;;;;;;;18.12;64.82;98476.94;2128612;83;21436;-84
2022/08/27 02:05:26;;;;;;;15.15;9.45;;;;;;;17.44;66.56;98471.89;2128788;84;21012;-82
2022/08/27 02:08:27;;;;;;;109.00;15.95;;;;;;;16.93;68.13;98475.11;2128597;84;21048;-82
2022/08/27 02:11:27;;;;;;;17.32;9.65;;;;;;;16.59;69.67;98473.08;2128460;84;21400;-81
2022/08/27 02:14:28;;;;;;;23.42;10.65;;;;;;;16.33;70.75;98472.64;2128429;84;21008;-81
2022/08/27 02:17:28;;;;;;;13.95;9.20;;;;;;;16.11;71.78;98465.55;2128094;84;21005;-80
2022/08/27 02:20:30;;;;;;;10.72;9.55;;;;;;;15.93;72.59;98462.31;2128436;83;21017;-82
2022/08/27 02:23:29;;;;;;;14.68;9.78;;;;;;;15.79;73.43;98466.92;2128402;84;21384;-81
2022/08/27 02:26:29;;;;;;;21.42;9.70;;;;;;;15.66;74.27;98465.80;2128752;84;20972;-83
2022/08/27 02:29:30;;;;;;;20.40;9.33;;;;;;;15.51;74.67;98464.20;2128508;84;20977;-81
2022/08/27 02:32:30;;;;;;;201.45;21.23;;;;;;;15.42;75.47;98466.51;2129044;84;20968;-81
2022/08/27 02:35:31;;;;;;;17.30;9.95;;;;;;;15.34;76.25;98464.42;2127893;82;21048;-83
2022/08/27 02:38:31;;;;;;;11.53;9.48;;;;;;;15.30;76.86;98467.55;2128239;84;21008;-84
2022/08/27 02:41:34;;;;;;;9.90;8.90;;;;;;;15.23;77.12;98476.40;2128306;83;21009;-82
2022/08/27 02:44:34;;;;;;;15.58;9.25;;;;;;;15.16;77.43;98468.61;2128156;83;21019;-81
2022/08/27 02:47:33;;;;;;;11.48;9.13;;;;;;;15.11;77.95;98476.55;2116833;83;21025;-83
2022/08/27 02:50:34;;;;;;;69.22;12.85;;;;;;;14.97;78.13;98472.77;2116151;84;21029;-84
2022/08/27 02:53:34;;;;;;;14.33;10.05;;;;;;;14.86;78.84;98475.97;2115461;83;20957;-84
2022/08/27 02:56:35;;;;;;;13.55;9.60;;;;;;;14.80;79.35;98473.86;2115549;83;20957;-83
2022/08/27 02:59:35;;;;;;;21.33;10.93;;;;;;;14.72;79.60;98474.34;2115502;83;21010;-83
2022/08/27 03:02:35;;;;;;;16.25;9.75;;;;;;;14.63;79.93;98462.18;2115342;83;21007;-83
2022/08/27 03:05:36;;;;;;;14.23;9.35;;;;;;;14.58;80.28;98472.73;2115616;84;21001;-83
2022/08/27 03:08:36;;;;;;;15.70;9.60;;;;;;;14.56;80.55;98467.06;2115507;83;21048;-83
2022/08/27 03:11:39;;;;;;;17.17;10.32;;;;;;;14.57;80.90;98475.38;2115441;83;21017;-83
2022/08/27 03:14:39;;;;;;;15.00;10.70;;;;;;;14.58;81.26;98468.79;2115503;84;20989;-84
2022/08/27 03:21:02;;;;;;;21.50;10.58;;;;;;;14.59;81.46;98469.22;2115815;83;20968;-83
2022/08/27 03:24:02;;;;;;;13.85;9.68;;;;;;;14.48;81.68;98466.27;2115512;83;21004;-83
2022/08/27 03:27:02;;;;;;;14.00;10.98;;;;;;;14.43;81.77;98468.94;2115396;84;21341;-85
2022/08/27 03:30:02;;;;;;;12.43;10.38;;;;;;;14.38;81.75;98477.27;2115358;84;21028;-83
2022/08/27 03:33:03;;;;;;;12.68;10.18;;;;;;;14.34;81.83;98480.37;2115463;83;21012;-83
2022/08/27 03:36:06;;;;;;;153.05;16.17;;;;;;;14.29;82.18;98478.23;2115396;83;20989;-83
2022/08/27 03:39:06;;;;;;;17.40;9.53;;;;;;;14.21;82.15;98471.30;2115248;83;21009;-84
2022/08/27 03:42:06;;;;;;;13.98;9.80;;;;;;;14.18;82.62;98469.58;2115304;84;21083;-83
2022/08/27 03:45:06;;;;;;;16.23;9.35;;;;;;;14.11;82.59;98463.08;2115396;84;21036;-84
2022/08/27 03:48:07;;;;;;;14.03;10.28;;;;;;;14.05;82.88;98468.37;2114372;83;21044;-83
2022/08/27 03:51:07;;;;;;;13.08;10.50;;;;;;;14.02;83.30;98465.34;2114972;83;21344;-83
2022/08/27 03:54:08;;;;;;;13.80;9.30;;;;;;;13.96;83.42;98461.00;2115069;83;21123;-84
2022/08/27 03:57:08;;;;;;;18.00;9.33;;;;;;;13.95;83.66;98462.33;2114981;84;20993;-83
2022/08/27 04:00:14;;;;;;;17.37;11.20;;;;;;;13.94;83.94;98457.97;2115166;83;21286;-83
2022/08/27 04:03:15;;;;;;;13.75;9.80;;;;;;;13.95;84.09;98458.39;2115505;83;21009;-83
2022/08/27 04:06:15;;;;;;;11.68;10.28;;;;;;;14.01;84.58;98460.53;2115348;84;20984;-84
2022/08/27 04:09:15;;;;;;;14.00;10.30;;;;;;;14.10;84.58;98466.59;2114841;83;20961;-84
2022/08/27 04:12:16;;;;;;;13.65;10.30;;;;;;;14.11;84.46;98469.64;2114811;83;21032;-83
2022/08/27 04:15:16;;;;;;;16.77;9.45;;;;;;;14.09;84.29;98471.41;2114599;83;21019;-84
2022/08/27 04:18:17;;;;;;;12.43;9.40;;;;;;;14.10;84.31;98466.59;2115161;83;21047;-83
2022/08/27 04:21:17;;;;;;;12.93;9.43;;;;;;;14.08;84.38;98472.29;2115306;84;20957;-83
2022/08/27 04:24:17;;;;;;;11.10;9.83;;;;;;;14.07;84.65;98467.48;2115718;84;21013;-82
2022/08/27 04:27:19;;;;;;;14.70;10.18;;;;;;;14.11;84.81;98470.95;2115625;84;20988;-84
2022/08/27 04:30:18;;;;;;;11.50;10.30;;;;;;;14.15;85.16;98470.91;2115423;83;20989;-84
2022/08/27 04:33:19;;;;;;;11.10;9.60;;;;;;;14.22;85.08;98468.66;2115486;83;21016;-83
2022/08/27 04:36:19;;;;;;;13.25;9.10;;;;;;;14.35;85.22;98474.67;2115409;84;21085;-83
2022/08/27 04:39:19;;;;;;;12.82;9.28;;;;;;;14.38;84.83;98465.45;2114926;84;20949;-83
2022/08/27 04:42:20;;;;;;;12.82;10.32;;;;;;;14.43;84.89;98463.69;2114419;84;21028;-84
2022/08/27 04:45:20;;;;;;;12.18;9.73;;;;;;;14.53;85.29;98470.59;2115366;84;21029;-83
2022/08/27 04:48:21;;;;;;;10.50;9.40;;;;;;;14.64;85.50;98468.73;2114232;83;21040;-83
2022/08/27 04:51:21;;;;;;;13.88;9.70;;;;;;;14.79;85.49;98471.67;2114799;84;21314;-83
2022/08/27 04:54:22;;;;;;;19.92;10.43;;;;;;;14.93;85.61;98470.20;2114314;83;21000;-84
2022/08/27 04:57:22;;;;;;;12.40;9.63;;;;;;;15.05;85.28;98470.05;2113963;84;20989;-82
2022/08/27 05:00:22;;;;;;;21.37;9.30;;;;;;;15.20;85.33;98469.87;2113839;84;21484;-83
2022/08/27 05:03:23;;;;;;;15.90;9.60;;;;;;;15.30;85.06;98463.59;2113755;84;20992;-82
2022/08/27 05:06:23;;;;;;;13.45;8.73;;;;;;;15.51;85.11;98474.72;2114020;84;20957;-82
2022/08/27 05:09:24;;;;;;;12.53;9.10;;;;;;;15.73;85.23;98473.59;2114278;84;21341;-83
2022/08/27 05:12:24;;;;;;;14.45;9.25;;;;;;;15.95;84.84;98466.23;2114459;84;20977;-83
2022/08/27 05:15:24;;;;;;;11.85;9.08;;;;;;;16.14;84.51;98465.49;2114434;84;20981;-82
2022/08/27 05:18:25;;;;;;;13.90;8.53;;;;;;;16.27;84.17;98456.49;2114064;84;21427;-83
2022/08/27 05:21:26;;;;;;;10.68;9.43;;;;;;;16.42;83.85;98453.59;2114506;84;20986;-83
2022/08/27 05:24:26;;;;;;;95.83;11.28;;;;;;;16.66;83.86;98455.42;2113735;84;20981;-83
2022/08/27 05:27:26;;;;;;;11.12;8.68;;;;;;;16.86;83.54;98453.28;2114346;84;20948;-84
2022/08/27 05:30:27;;;;;;;9.90;8.95;;;;;;;17.05;83.01;98452.01;2114094;84;21437;-83
2022/08/27 05:33:27;;;;;;;8.83;8.03;;;;;;;17.27;82.86;98444.52;2114332;84;21286;-83
2022/08/27 05:36:28;;;;;;;20.02;9.20;;;;;;;17.47;82.56;98444.12;2114527;84;21004;-78
2022/08/27 05:39:28;;;;;;;11.38;9.30;;;;;;;17.66;82.39;98441.52;2115544;84;20985;-84
2022/08/27 05:42:28;;;;;;;12.03;8.83;;;;;;;17.91;82.34;98439.62;2115363;84;21041;-84
2022/08/27 05:45:29;;;;;;;13.62;9.05;;;;;;;18.21;82.42;98440.22;2115356;84;20938;-82
2022/08/27 05:48:29;;;;;;;25.97;9.60;;;;;;;18.51;81.63;98436.37;2116369;83;21050;-83
2022/08/27 05:51:29;;;;;;;127.67;16.00;;;;;;;18.84;81.21;98443.41;2115348;83;20985;-83
2022/08/27 05:54:30;;;;;;;179.38;20.10;;;;;;;19.10;81.60;98438.75;2115015;84;20993;-82
2022/08/27 05:57:30;;;;;;;28.87;9.55;;;;;;;19.31;79.86;98441.22;2115247;83;21321;-83
2022/08/27 06:03:51;;;;;;;17.90;9.05;;;;;;;19.75;79.15;98443.00;2115717;83;21055;-83
2022/08/27 06:06:50;;;;;;;74.35;13.65;;;;;;;20.04;78.80;98446.94;2115084;84;21000;-82
2022/08/27 06:09:50;;;;;;;14.80;9.65;;;;;;;20.38;78.48;98451.13;2115588;83;21060;-85
2022/08/27 06:12:51;;;;;;;133.82;19.20;;;;;;;20.70;78.62;98446.93;2115506;84;20993;-82
2022/08/27 06:15:51;;;;;;;23.73;10.08;;;;;;;20.98;77.25;98447.70;2115237;83;21021;-83
2022/08/27 06:18:52;;;;;;;13.90;9.25;;;;;;;21.26;77.21;98449.38;2114951;84;21377;-82
2022/08/27 06:21:52;;;;;;;12.43;8.78;;;;;;;21.57;76.22;98452.59;2114679;84;21076;-82
2022/08/27 06:24:52;;;;;;;16.85;8.65;;;;;;;21.88;75.79;98452.29;2114778;84;20957;-84
2022/08/27 06:27:53;;;;;;;11.93;9.43;;;;;;;22.19;75.58;98444.43;2114785;84;21316;-82
2022/08/27 06:30:53;;;;;;;13.43;8.83;;;;;;;22.44;73.82;98443.80;2115395;84;21027;-83
2022/08/27 06:33:53;;;;;;;12.30;9.00;;;;;;;22.74;69.38;98446.98;2115299;84;20941;-82
2022/08/27 06:36:54;;;;;;;13.78;9.20;;;;;;;23.07;68.34;98449.11;2114793;84;21364;-82
2022/08/27 06:39:54;;;;;;;12.43;9.25;;;;;;;23.36;66.78;98451.31;2114949;83;20945;-82
2022/08/27 06:42:55;;;;;;;14.45;9.70;;;;;;;23.62;65.22;98453.30;2115308;83;21004;-82
2022/08/27 06:45:55;;;;;;;11.78;9.38;;;;;;;23.85;64.02;98446.41;2115844;84;21366;-83
2022/08/27 06:48:56;;;;;;;9.73;8.48;;;;;;;24.15;63.24;98444.91;2128370;84;21064;-82
2022/08/27 06:51:56;;;;;;;15.18;8.80;;;;;;;24.42;61.70;98455.20;2128321;83;20969;-82
2022/08/27 06:54:57;;;;;;;16.60;9.70;;;;;;;24.69;62.28;98448.94;2127972;84;20994;-83
2022/08/27 06:57:57;;;;;;;10.68;8.25;;;;;;;24.92;61.33;98449.94;2128175;84;20980;-83
2022/08/27 07:00:58;;;;;;;11.35;8.63;;;;;;;25.06;59.18;98443.91;2128429;84;20924;-82
2022/08/27 07:03:58;;;;;;;13.10;9.35;;;;;;;25.26;59.20;98445.06;2128145;84;21428;-82
2022/08/27 07:06:58;;;;;;;12.28;8.03;;;;;;;25.57;58.94;98444.25;2128285;83;20985;-83
2022/08/27 07:09:59;;;;;;;13.03;8.70;;;;;;;25.86;57.49;98444.47;2128222;84;21015;-83
2022/08/27 07:12:59;;;;;;;13.08;8.18;;;;;;;26.09;56.83;98441.38;2128309;84;21572;-82
2022/08/27 07:16:00;;;;;;;12.07;7.85;;;;;;;26.36;57.56;98446.98;2128419;84;21012;-83
2022/08/27 07:19:00;;;;;;;11.53;7.65;;;;;;;26.57;55.93;98440.36;2127619;84;21388;-79
2022/08/27 07:22:01;;;;;;;19.62;8.48;;;;;;;26.79;54.26;98447.11;2128026;84;20993;-78
2022/08/27 07:25:01;;;;;;;10.88;7.67;;;;;;;26.96;53.48;98449.66;2127995;84;20990;-81
2022/08/27 07:28:01;;;;;;;12.28;7.60;;;;;;;27.02;53.61;98453.33;2127824;84;21060;-81
2022/08/27 07:31:02;;;;;;;13.65;8.15;;;;;;;27.15;52.65;98450.28;2127460;84;21388;-82
2022/08/27 07:34:02;;;;;;;11.10;7.65;;;;;;;27.20;51.98;98444.16;2127422;84;20945;-83
2022/08/27 07:37:03;;;;;;;9.75;8.03;;;;;;;27.31;51.73;98445.31;2127822;84;20996;-81
2022/08/27 07:40:03;;;;;;;11.12;7.28;;;;;;;27.55;51.56;98449.13;2127886;84;21349;-81
2022/08/27 07:46:24;;;;;;;10.25;7.70;;;;;;;27.94;49.42;98447.59;2131070;83;20929;-83
2022/08/27 07:49:25;;;;;;;10.13;7.65;;;;;;;28.15;49.18;98455.09;2156766;83;21371;-82
2022/08/27 07:52:26;;;;;;;10.48;7.28;;;;;;;28.45;48.62;98448.20;2156467;83;20955;-82
2022/08/27 07:55:25;;;;;;;8.68;7.22;;;;;;;28.58;47.94;98449.58;2157111;83;21022;-82
2022/08/27 07:58:26;;;;;;;7.75;7.00;;;;;;;28.69;47.68;98449.75;2157024;83;20995;-83
2022/08/27 08:01:26;;;;;;;8.55;7.58;;;;;;;28.80;47.03;98456.59;2156381;83;21667;-82
2022/08/27 08:04:27;;;;;;;10.13;7.35;;;;;;;28.81;47.18;98454.77;2156086;83;21038;-82
2022/08/27 08:07:27;;;;;;;8.95;6.75;;;;;;;28.92;46.85;98457.61;2157212;83;20979;-83
2022/08/27 08:10:27;;;;;;;8.15;7.00;;;;;;;29.00;47.11;98455.73;2156456;83;21011;-82
2022/08/27 08:13:28;;;;;;;10.53;6.65;;;;;;;29.18;45.91;98449.07;2156141;83;21376;-83
2022/08/27 08:16:28;;;;;;;11.18;6.67;;;;;;;29.40;45.75;98452.45;2156755;83;21046;-82
2022/08/27 08:19:29;;;;;;;11.97;7.05;;;;;;;29.56;44.07;98453.14;2156723;83;21011;-82
2022/08/27 08:22:29;;;;;;;7.45;6.40;;;;;;;29.62;43.98;98448.66;2156058;83;20980;-81
2022/08/27 08:25:29;;;;;;;11.57;6.72;;;;;;;29.74;43.52;98452.30;2156341;83;21347;-83
2022/08/27 08:28:30;;;;;;;7.37;6.67;;;;;;;29.87;43.25;98456.30;2156767;83;20967;-81
2022/08/27 08:31:30;;;;;;;11.65;6.53;;;;;;;29.91;42.60;98451.07;2156183;83;21011;-81
2022/08/27 08:34:31;;;;;;;9.10;6.35;;;;;;;30.00;42.33;98453.95;2156855;83;20990;-82
2022/08/27 08:37:31;;;;;;;7.62;6.17;;;;;;;30.09;42.71;98451.95;2157214;83;20951;-82
2022/08/27 08:40:31;;;;;;;7.97;6.40;;;;;;;30.26;41.78;98454.73;2157045;83;20932;-81
2022/08/27 08:43:32;;;;;;;10.65;6.37;;;;;;;30.42;40.89;98454.48;2157099;83;21363;-82
2022/08/27 08:46:32;;;;;;;6.37;5.78;;;;;;;30.61;40.77;98462.06;2156983;83;20979;-83
2022/08/27 08:49:33;;;;;;;10.95;5.85;;;;;;;30.73;39.87;98456.59;2157084;83;20979;-83
2022/08/27 08:52:33;;;;;;;10.82;5.90;;;;;;;30.70;40.05;98457.31;2157151;83;20992;-82
2022/08/27 08:55:34;;;;;;;10.18;5.20;;;;;;;30.80;38.37;98456.98;2157835;83;21039;-82
2022/08/27 08:58:34;;;;;;;9.38;5.53;;;;;;;30.83;38.51;98456.75;2157649;83;21399;-82
2022/08/27 09:01:34;;;;;;;8.13;5.45;;;;;;;30.93;37.13;98457.75;2157544;83;20967;-82
2022/08/27 09:04:35;;;;;;;6.30;5.37;;;;;;;30.98;37.43;98461.44;2157905;83;20935;-82
2022/08/27 09:07:35;;;;;;;14.23;5.83;;;;;;;31.17;37.71;98460.89;2157117;83;20948;-82
2022/08/27 09:10:36;;;;;;;9.90;5.60;;;;;;;31.38;36.68;98451.15;2157361;83;20980;-82
2022/08/27 09:13:36;;;;;;;11.15;5.67;;;;;;;31.52;35.50;98460.84;2156843;83;21011;-82
2022/08/27 09:16:37;;;;;;;10.08;5.50;;;;;;;31.64;35.39;98462.06;2156612;83;20986;-81
2022/08/27 09:19:37;;;;;;;12.63;5.80;;;;;;;31.77;34.51;98467.36;2156447;83;20944;-82
2022/08/27 09:22:37;;;;;;;7.70;4.72;;;;;;;31.77;33.52;98461.97;2155735;83;21003;-82
2022/08/27 09:25:38;;;;;;;7.42;5.10;;;;;;;31.83;33.02;98460.61;2156376;83;21036;-82
2022/08/27 09:31:57;;;;;;;10.28;5.00;;;;;;;31.93;32.49;98458.39;2156645;83;20924;-82
2022/08/27 09:34:58;;;;;;;7.72;4.83;;;;;;;31.99;31.48;98459.73;2156833;83;20991;-83
2022/08/27 09:37:58;;;;;;;8.65;5.42;;;;;;;32.08;31.44;98463.05;2157411;83;20940;-84
2022/08/27 09:40:59;;;;;;;8.18;4.47;;;;;;;32.23;31.58;98464.98;2156694;83;20920;-82
2022/08/27 09:44:00;;;;;;;14.65;5.60;;;;;;;32.30;31.21;98468.43;2156508;83;21098;-81
2022/08/27 09:47:01;;;;;;;19.07;5.97;;;;;;;32.33;30.38;98461.91;2151075;83;21732;-81
2022/08/27 09:50:00;;;;;;;12.47;4.80;;;;;;;32.33;30.41;98464.62;2115215;84;21020;-82
2022/08/27 09:53:02;;;;;;;6.08;4.62;;;;;;;32.36;31.11;98460.31;2115213;84;20993;-83
2022/08/27 09:56:02;;;;;;;9.65;4.50;;;;;;;32.44;29.39;98463.72;2115420;84;21016;-83
2022/08/27 09:59:02;;;;;;;9.08;5.05;;;;;;;32.39;30.03;98461.90;2115214;84;20946;-83
2022/08/27 10:02:02;;;;;;;10.18;4.87;;;;;;;32.44;29.79;98457.83;2114991;84;20973;-83
2022/08/27 10:05:02;;;;;;;12.75;4.45;;;;;;;32.52;28.85;98457.19;2114864;84;20965;-83
2022/08/27 10:08:03;;;;;;;13.05;4.80;;;;;;;32.66;27.88;98459.58;2114438;84;20918;-83
2022/08/27 10:11:03;;;;;;;13.98;5.25;;;;;;;32.79;28.58;98456.23;2115190;84;20989;-82
2022/08/27 10:14:04;;;;;;;13.53;4.65;;;;;;;32.92;27.68;98454.19;2114839;84;21374;-82
2022/08/27 10:17:04;;;;;;;11.45;4.33;;;;;;;32.93;27.63;98457.25;2115125;84;21318;-84
2022/08/27 10:20:05;;;;;;;8.95;5.17;;;;;;;32.96;27.17;98458.88;2115412;84;20992;-83
2022/08/27 10:23:05;;;;;;;12.20;5.60;;;;;;;33.04;27.47;98456.86;2115169;84;21042;-83
2022/08/27 10:26:06;;;;;;;11.97;5.25;;;;;;;33.13;27.62;98448.81;2114441;84;20945;-82
2022/08/27 10:29:06;;;;;;;11.90;4.55;;;;;;;33.12;27.40;98452.50;2114482;84;21033;-82
2022/08/27 10:32:06;;;;;;;13.90;5.37;;;;;;;33.04;28.55;98449.61;2115337;84;21297;-83
2022/08/27 10:35:07;;;;;;;11.95;4.42;;;;;;;33.10;27.43;98450.42;2114999;83;20976;-81
2022/08/27 10:38:07;;;;;;;13.13;4.55;;;;;;;33.00;24.83;98452.21;2115315;84;20981;-81
2022/08/27 10:41:08;;;;;;;12.00;4.50;;;;;;;32.72;25.51;98457.70;2115052;83;21000;-83
2022/08/27 10:44:08;;;;;;;10.78;4.90;;;;;;;32.17;26.25;98452.84;2114470;84;21000;-82
2022/08/27 10:47:08;;;;;;;17.75;4.85;;;;;;;32.00;27.40;98450.64;2114395;83;20969;-82
2022/08/27 10:50:09;;;;;;;10.40;4.83;;;;;;;32.17;27.01;98452.84;2114636;84;21036;-81
2022/08/27 10:53:09;;;;;;;9.90;5.17;;;;;;;32.47;26.85;98458.92;2115153;84;20976;-82
2022/08/27 10:56:09;;;;;;;8.78;4.85;;;;;;;32.63;26.24;98452.59;2114546;84;21393;-82
2022/08/27 10:59:10;;;;;;;9.28;5.08;;;;;;;32.74;26.12;98453.03;2114623;84;21024;-81
2022/08/27 11:02:10;;;;;;;9.78;5.40;;;;;;;32.85;26.38;98448.95;2114906;84;21017;-81
2022/08/27 11:05:11;;;;;;;12.65;5.17;;;;;;;32.91;25.85;98449.77;2114621;84;20956;-81
2022/08/27 11:08:11;;;;;;;12.30;4.95;;;;;;;33.00;25.87;98447.30;2114185;84;20937;-82
2022/08/27 11:11:11;;;;;;;11.20;5.45;;;;;;;33.10;25.91;98453.13;2114458;84;20926;-84
2022/08/27 11:14:12;;;;;;;11.12;5.53;;;;;;;33.15;25.80;98450.03;2114289;84;20997;-82
2022/08/27 11:17:12;;;;;;;9.83;5.37;;;;;;;33.10;25.66;98446.87;2113968;83;20949;-83
2022/08/27 11:20:13;;;;;;;13.10;5.40;;;;;;;32.86;25.64;98443.91;2114292;84;20961;-82
2022/08/27 11:23:13;;;;;;;6.87;5.25;;;;;;;32.82;26.04;98443.80;2114705;83;21720;-82
2022/08/27 11:26:13;;;;;;;13.98;5.30;;;;;;;33.08;25.43;98441.59;2114705;84;20984;-81
2022/08/27 11:29:14;;;;;;;10.53;4.50;;;;;;;33.08;25.43;98441.59;2115550;84;20937;-84
2022/08/27 11:32:14;;;;;;;12.20;4.78;;;;;;;33.16;25.33;98435.52;2115862;83;20929;-84
2022/08/27 11:35:15;;;;;;;11.33;5.05;;;;;;;33.24;25.35;98435.20;2116011;83;21373;-83
2022/08/27 11:38:16;;;;;;;12.82;5.25;;;;;;;33.25;25.28;98434.22;2115921;84;20969;-84
2022/08/27 11:41:15;;;;;;;14.07;4.55;;;;;;;33.22;24.64;98433.63;2116133;84;20973;-84
2022/08/27 11:44:16;;;;;;;10.70;4.95;;;;;;;33.24;24.79;98433.86;2115610;84;21044;-82
2022/08/27 11:47:16;;;;;;;11.20;4.87;;;;;;;33.27;24.79;98435.44;2115396;83;21024;-79
2022/08/27 11:50:17;;;;;;;12.82;4.87;;;;;;;33.22;24.81;98433.63;2114822;84;20976;-82
2022/08/27 11:53:17;;;;;;;13.75;5.55;;;;;;;33.10;24.91;98426.09;2115322;84;21475;-83
2022/08/27 11:56:18;;;;;;;9.83;5.03;;;;;;;32.99;25.31;98432.06;2115659;84;20957;-82
2022/08/27 11:59:19;;;;;;;10.10;5.12;;;;;;;32.89;25.59;98431.97;2115574;84;21009;-82
2022/08/27 12:02:18;;;;;;;6.85;4.90;;;;;;;32.77;25.62;98425.77;2115562;84;20956;-82
2022/08/27 12:05:19;;;;;;;15.05;5.03;;;;;;;32.83;24.74;98432.50;2115684;84;21027;-80
2022/08/27 12:08:19;;;;;;;9.85;5.00;;;;;;;33.00;25.00;98427.02;2115562;84;21340;-82
2022/08/27 12:11:20;;;;;;;15.32;5.00;;;;;;;33.14;24.84;98430.73;2115340;84;20902;-82
2022/08/27 12:14:20;;;;;;;11.43;5.65;;;;;;;33.16;24.73;98422.00;2115357;84;21049;-83
2022/08/27 12:17:21;;;;;;;13.35;5.20;;;;;;;33.20;24.63;98423.44;2115761;84;20965;-83
2022/08/27 12:20:21;;;;;;;8.25;4.62;;;;;;;33.31;24.85;98426.59;2115236;84;21025;-81
2022/08/27 12:23:39;;;;;;;12.75;4.53;;;;;;;33.33;24.08;98422.76;2115445;83;21409;-82
2022/08/27 12:26:41;;;;;;;8.65;4.42;;;;;;;33.35;24.51;98419.92;2115514;84;20960;-81
2022/08/27 12:29:40;;;;;;;11.57;4.83;;;;;;;33.28;24.03;98415.52;2115495;84;21013;-80
2022/08/27 12:32:41;;;;;;;12.73;4.90;;;;;;;33.28;24.84;98417.36;2115192;84;21673;-81
2022/08/27 12:35:41;;;;;;;8.18;4.95;;;;;;;33.29;25.10;98419.07;2114541;84;21024;-80
2022/08/27 12:38:41;;;;;;;9.55;5.40;;;;;;;33.39;25.25;98414.59;2115521;83;21017;-81
2022/08/27 12:41:42;;;;;;;10.93;5.22;;;;;;;33.42;24.64;98407.06;2115300;84;21021;-80
2022/08/27 12:44:42;;;;;;;15.00;5.15;;;;;;;33.42;24.03;98410.27;2115285;84;21036;-80
2022/08/27 12:47:43;;;;;;;14.10;5.78;;;;;;;33.40;24.12;98411.75;2115114;82;21343;-81
2022/08/27 12:50:43;;;;;;;10.03;5.37;;;;;;;33.31;24.51;98408.52;2115555;84;21309;-81
2022/08/27 12:53:43;;;;;;;10.35;4.60;;;;;;;33.24;24.13;98407.30;2115598;83;20945;-81
2022/08/27 12:56:44;;;;;;;12.40;5.12;;;;;;;33.11;24.00;98404.82;2115339;84;21388;-80
2022/08/27 12:59:44;;;;;;;10.30;5.12;;;;;;;32.93;24.35;98399.14;2115710;84;21043;-80
2022/08/27 13:02:45;;;;;;;12.25;4.78;;;;;;;32.87;25.10;98390.20;2115666;83;21009;-81
2022/08/27 13:05:45;;;;;;;11.78;4.72;;;;;;;32.85;24.83;98393.53;2115441;84;20997;-80
2022/08/27 13:08:45;;;;;;;11.43;4.90;;;;;;;32.90;25.34;98393.14;2115459;83;20969;-81
2022/08/27 13:11:46;;;;;;;10.32;5.12;;;;;;;32.94;25.38;98392.73;2115455;84;20942;-80
2022/08/27 13:14:46;;;;;;;10.75;4.50;;;;;;;33.01;24.59;98393.59;2115585;84;21001;-80
2022/08/27 13:17:47;;;;;;;8.05;4.75;;;;;;;32.97;24.19;98395.70;2115193;84;21009;-82
2022/08/27 13:20:47;;;;;;;14.00;5.60;;;;;;;32.96;25.04;98391.28;2115390;84;20993;-82
2022/08/27 13:23:47;;;;;;;14.25;5.30;;;;;;;32.96;24.75;98389.08;2115358;84;20981;-81
2022/08/27 13:26:48;;;;;;;10.10;5.22;;;;;;;32.94;24.79;98383.28;2115142;84;20938;-82
2022/08/27 13:29:48;;;;;;;8.40;5.28;;;;;;;32.87;24.78;98386.16;2115507;84;20974;-81
2022/08/27 13:32:49;;;;;;;12.70;5.30;;;;;;;32.88;24.48;98385.66;2114947;84;21346;-82
2022/08/27 13:35:49;;;;;;;17.57;5.05;;;;;;;32.83;24.72;98383.84;2115208;83;20997;-81
2022/08/27 13:38:49;;;;;;;8.60;5.03;;;;;;;32.68;24.99;98379.73;2115056;84;20930;-81
2022/08/27 13:41:50;;;;;;;11.20;4.78;;;;;;;32.57;25.28;98376.59;2115176;84;20989;-81
2022/08/27 13:44:50;;;;;;;9.15;5.53;;;;;;;32.66;24.68;98378.52;2115034;83;20970;-82
2022/08/27 13:47:51;;;;;;;9.80;4.50;;;;;;;32.75;24.77;98368.27;2114824;84;20974;-81
2022/08/27 13:50:51;;;;;;;11.30;4.80;;;;;;;32.83;24.79;98368.48;2114200;83;21275;-81
2022/08/27 13:57:12;;;;;;;71.50;18.42;;;;;;;32.80;24.92;98364.70;2114493;83;20982;-82
2022/08/27 14:00:11;;;;;;;12.35;5.42;;;;;;;32.69;25.77;98363.39;2114645;83;20961;-79
2022/08/27 14:03:11;;;;;;;9.53;4.90;;;;;;;32.69;25.97;98369.28;2114889;83;21028;-82
2022/08/27 14:06:12;;;;;;;12.63;4.53;;;;;;;32.70;25.84;98363.75;2115229;84;20946;-82
2022/08/27 14:09:12;;;;;;;21.00;4.70;;;;;;;32.70;25.23;98359.70;2115423;83;20945;-81
2022/08/27 14:12:12;;;;;;;12.03;4.58;;;;;;;32.60;25.49;98365.53;2115378;84;21044;-81
2022/08/27 14:15:13;;;;;;;12.25;4.42;;;;;;;32.60;25.07;98365.03;2115116;83;21356;-82
2022/08/27 14:18:13;;;;;;;11.43;5.03;;;;;;;32.61;25.13;98368.59;2115295;84;21104;-82